sensor_id;sensor_type;location;lat;lon;timestamp;temperature;humidity
29775;DHT22;16676;51.202;6.774;2022-09-09T00:01:47;24.00;55.60
29775;DHT22;16676;51.202;6.774;2022-09-09T00:05:57;24.00;55.60
29775;DHT22;16676;51.202;6.774;2022-09-09T00:10:13;23.90;56.10
29775;DHT22;16676;51.202;6.774;2022-09-09T00:14:23;23.80;56.00
29775;DHT22;16676;51.202;6.774;2022-09-09T00:18:34;23.80;56.10
29775;DHT22;16676;51.202;6.774;2022-09-09T00:22:41;23.80;56.40
29775;DHT22;16676;51.202;6.774;2022-09-09T00:26:47;23.90;56.10
29775;DHT22;16676;51.202;6.774;2022-09-09T00:30:51;23.80;56.10
29775;DHT22;16676;51.202;6.774;2022-09-09T00:34:56;23.80;56.60
29775;DHT22;16676;51.202;6.774;2022-09-09T00:39:01;23.80;56.90
29775;DHT22;16676;51.202;6.774;2022-09-09T00:43:21;23.70;56.60
29775;DHT22;16676;51.202;6.774;2022-09-09T00:47:44;23.70;56.90
29775;DHT22;16676;51.202;6.774;2022-09-09T00:51:55;23.70;57.20
29775;DHT22;16676;51.202;6.774;2022-09-09T00:56:08;23.70;57.30
29775;DHT22;16676;51.202;6.774;2022-09-09T01:00:21;23.60;57.50
29775;DHT22;16676;51.202;6.774;2022-09-09T01:04:31;23.60;58.20
29775;DHT22;16676;51.202;6.774;2022-09-09T01:08:48;23.60;58.30
29775;DHT22;16676;51.202;6.774;2022-09-09T01:12:56;23.50;58.30
29775;DHT22;16676;51.202;6.774;2022-09-09T01:17:02;23.50;58.30
29775;DHT22;16676;51.202;6.774;2022-09-09T01:21:13;23.50;58.50
29775;DHT22;16676;51.202;6.774;2022-09-09T01:25:29;23.50;58.60
29775;DHT22;16676;51.202;6.774;2022-09-09T01:29:34;23.50;58.80
29775;DHT22;16676;51.202;6.774;2022-09-09T01:33:37;23.40;58.60
29775;DHT22;16676;51.202;6.774;2022-09-09T01:37:39;23.40;58.40
29775;DHT22;16676;51.202;6.774;2022-09-09T01:41:41;23.40;58.40
29775;DHT22;16676;51.202;6.774;2022-09-09T01:45:46;23.30;58.40
29775;DHT22;16676;51.202;6.774;2022-09-09T01:49:50;23.30;58.00
29775;DHT22;16676;51.202;6.774;2022-09-09T01:53:52;23.30;58.20
29775;DHT22;16676;51.202;6.774;2022-09-09T01:58:03;23.30;58.20
29775;DHT22;16676;51.202;6.774;2022-09-09T02:02:13;23.30;58.20
29775;DHT22;16676;51.202;6.774;2022-09-09T02:06:25;23.30;58.30
29775;DHT22;16676;51.202;6.774;2022-09-09T02:10:30;23.20;58.30
29775;DHT22;16676;51.202;6.774;2022-09-09T02:14:38;23.20;58.40
29775;DHT22;16676;51.202;6.774;2022-09-09T02:18:44;23.20;58.50
29775;DHT22;16676;51.202;6.774;2022-09-09T02:22:50;23.10;58.70
29775;DHT22;16676;51.202;6.774;2022-09-09T02:26:54;23.10;59.10
29775;DHT22;16676;51.202;6.774;2022-09-09T02:30:57;23.10;59.20
29775;DHT22;16676;51.202;6.774;2022-09-09T02:35:05;23.00;59.10
29775;DHT22;16676;51.202;6.774;2022-09-09T02:39:09;23.00;59.40
29775;DHT22;16676;51.202;6.774;2022-09-09T02:43:14;23.00;59.50
29775;DHT22;16676;51.202;6.774;2022-09-09T02:47:29;23.00;59.30
29775;DHT22;16676;51.202;6.774;2022-09-09T02:51:38;23.00;59.10
29775;DHT22;16676;51.202;6.774;2022-09-09T02:55:45;23.00;59.20
29775;DHT22;16676;51.202;6.774;2022-09-09T02:59:49;22.90;58.80
29775;DHT22;16676;51.202;6.774;2022-09-09T03:03:52;22.90;59.10
29775;DHT22;16676;51.202;6.774;2022-09-09T03:07:57;22.90;58.70
29775;DHT22;16676;51.202;6.774;2022-09-09T03:11:59;22.90;58.80
29775;DHT22;16676;51.202;6.774;2022-09-09T03:16:01;22.90;58.50
29775;DHT22;16676;51.202;6.774;2022-09-09T03:20:05;22.90;58.80
29775;DHT22;16676;51.202;6.774;2022-09-09T03:24:09;22.90;59.20
29775;DHT22;16676;51.202;6.774;2022-09-09T03:28:11;22.90;59.30
29775;DHT22;16676;51.202;6.774;2022-09-09T03:32:13;22.80;58.90
29775;DHT22;16676;51.202;6.774;2022-09-09T03:36:18;22.90;59.30
29775;DHT22;16676;51.202;6.774;2022-09-09T03:40:48;22.80;59.40
29775;DHT22;16676;51.202;6.774;2022-09-09T03:45:10;22.80;59.20
29775;DHT22;16676;51.202;6.774;2022-09-09T03:49:32;22.80;59.40
29775;DHT22;16676;51.202;6.774;2022-09-09T03:53:54;22.70;59.60
29775;DHT22;16676;51.202;6.774;2022-09-09T03:57:58;22.70;59.70
29775;DHT22;16676;51.202;6.774;2022-09-09T04:02:01;22.70;59.00
29775;DHT22;16676;51.202;6.774;2022-09-09T04:06:04;22.70;59.20
29775;DHT22;16676;51.202;6.774;2022-09-09T04:10:08;22.70;59.40
29775;DHT22;16676;51.202;6.774;2022-09-09T04:14:11;22.70;59.90
29775;DHT22;16676;51.202;6.774;2022-09-09T04:18:13;22.60;59.50
29775;DHT22;16676;51.202;6.774;2022-09-09T04:22:15;22.60;59.70
29775;DHT22;16676;51.202;6.774;2022-09-09T04:26:17;22.60;59.60
29775;DHT22;16676;51.202;6.774;2022-09-09T04:30:22;22.60;59.80
29775;DHT22;16676;51.202;6.774;2022-09-09T04:34:24;22.60;59.70
29775;DHT22;16676;51.202;6.774;2022-09-09T04:38:26;22.60;60.20
29775;DHT22;16676;51.202;6.774;2022-09-09T04:42:28;22.60;59.90
29775;DHT22;16676;51.202;6.774;2022-09-09T04:46:31;22.60;59.80
29775;DHT22;16676;51.202;6.774;2022-09-09T04:50:35;22.50;60.00
29775;DHT22;16676;51.202;6.774;2022-09-09T04:54:37;22.50;59.90
29775;DHT22;16676;51.202;6.774;2022-09-09T04:58:40;22.50;60.00
29775;DHT22;16676;51.202;6.774;2022-09-09T05:02:45;22.60;60.10
29775;DHT22;16676;51.202;6.774;2022-09-09T05:06:47;22.50;60.00
29775;DHT22;16676;51.202;6.774;2022-09-09T05:10:49;22.50;60.10
29775;DHT22;16676;51.202;6.774;2022-09-09T05:14:51;22.50;60.20
29775;DHT22;16676;51.202;6.774;2022-09-09T05:18:55;22.50;60.00
29775;DHT22;16676;51.202;6.774;2022-09-09T05:22:57;22.50;60.20
29775;DHT22;16676;51.202;6.774;2022-09-09T05:26:59;22.40;60.20
29775;DHT22;16676;51.202;6.774;2022-09-09T05:31:04;22.50;60.80
29775;DHT22;16676;51.202;6.774;2022-09-09T05:35:10;22.40;61.10
29775;DHT22;16676;51.202;6.774;2022-09-09T05:39:12;22.40;60.40
29775;DHT22;16676;51.202;6.774;2022-09-09T05:43:14;22.40;60.90
29775;DHT22;16676;51.202;6.774;2022-09-09T05:47:16;22.50;61.00
29775;DHT22;16676;51.202;6.774;2022-09-09T05:51:21;22.50;61.00
29775;DHT22;16676;51.202;6.774;2022-09-09T05:55:23;22.50;61.20
29775;DHT22;16676;51.202;6.774;2022-09-09T05:59:26;22.50;61.40
29775;DHT22;16676;51.202;6.774;2022-09-09T06:03:29;22.40;60.80
29775;DHT22;16676;51.202;6.774;2022-09-09T06:07:32;22.40;60.70
29775;DHT22;16676;51.202;6.774;2022-09-09T06:11:35;22.40;60.40
29775;DHT22;16676;51.202;6.774;2022-09-09T06:15:37;22.40;60.90
29775;DHT22;16676;51.202;6.774;2022-09-09T06:19:39;22.40;61.20
29775;DHT22;16676;51.202;6.774;2022-09-09T06:23:43;22.30;60.50
29775;DHT22;16676;51.202;6.774;2022-09-09T06:27:48;22.30;60.80
29775;DHT22;16676;51.202;6.774;2022-09-09T06:31:51;22.30;60.20
29775;DHT22;16676;51.202;6.774;2022-09-09T06:35:54;22.20;60.10
29775;DHT22;16676;51.202;6.774;2022-09-09T06:39:59;22.20;60.30
29775;DHT22;16676;51.202;6.774;2022-09-09T06:44:01;22.20;60.50
29775;DHT22;16676;51.202;6.774;2022-09-09T06:48:03;22.20;59.80
29775;DHT22;16676;51.202;6.774;2022-09-09T06:52:06;22.20;60.20
29775;DHT22;16676;51.202;6.774;2022-09-09T06:56:22;22.20;60.30
29775;DHT22;16676;51.202;6.774;2022-09-09T07:00:25;22.30;59.90
29775;DHT22;16676;51.202;6.774;2022-09-09T07:04:27;22.30;59.80
29775;DHT22;16676;51.202;6.774;2022-09-09T07:08:29;22.30;59.40
29775;DHT22;16676;51.202;6.774;2022-09-09T07:12:33;22.30;59.50
29775;DHT22;16676;51.202;6.774;2022-09-09T07:16:35;22.40;59.10
29775;DHT22;16676;51.202;6.774;2022-09-09T07:20:38;22.30;58.70
29775;DHT22;16676;51.202;6.774;2022-09-09T07:24:40;22.30;59.10
29775;DHT22;16676;51.202;6.774;2022-09-09T07:28:43;22.30;58.60
29775;DHT22;16676;51.202;6.774;2022-09-09T07:32:45;22.30;58.80
29775;DHT22;16676;51.202;6.774;2022-09-09T07:36:47;22.30;58.60
29775;DHT22;16676;51.202;6.774;2022-09-09T07:40:49;22.40;58.80
29775;DHT22;16676;51.202;6.774;2022-09-09T07:44:52;22.40;58.40
29775;DHT22;16676;51.202;6.774;2022-09-09T07:48:56;22.40;58.10
29775;DHT22;16676;51.202;6.774;2022-09-09T07:52:59;22.40;58.80
29775;DHT22;16676;51.202;6.774;2022-09-09T07:57:01;22.50;58.20
29775;DHT22;16676;51.202;6.774;2022-09-09T08:01:11;22.70;58.90
29775;DHT22;16676;51.202;6.774;2022-09-09T08:05:14;22.70;58.80
29775;DHT22;16676;51.202;6.774;2022-09-09T08:09:17;22.80;58.80
29775;DHT22;16676;51.202;6.774;2022-09-09T08:13:19;22.80;57.90
29775;DHT22;16676;51.202;6.774;2022-09-09T08:17:22;22.80;57.70
29775;DHT22;16676;51.202;6.774;2022-09-09T08:21:28;22.80;59.00
29775;DHT22;16676;51.202;6.774;2022-09-09T08:25:30;22.90;57.80
29775;DHT22;16676;51.202;6.774;2022-09-09T08:29:32;22.90;56.90
29775;DHT22;16676;51.202;6.774;2022-09-09T08:33:35;23.00;56.90
29775;DHT22;16676;51.202;6.774;2022-09-09T08:37:39;23.00;56.50
29775;DHT22;16676;51.202;6.774;2022-09-09T08:42:06;23.00;57.40
29775;DHT22;16676;51.202;6.774;2022-09-09T08:46:17;23.10;57.30
29775;DHT22;16676;51.202;6.774;2022-09-09T08:50:25;23.20;56.50
29775;DHT22;16676;51.202;6.774;2022-09-09T08:54:32;23.20;55.70
29775;DHT22;16676;51.202;6.774;2022-09-09T08:58:45;23.20;56.40
29775;DHT22;16676;51.202;6.774;2022-09-09T09:02:56;23.20;56.00
29775;DHT22;16676;51.202;6.774;2022-09-09T09:07:08;23.20;55.50
29775;DHT22;16676;51.202;6.774;2022-09-09T09:11:14;23.20;55.00
29775;DHT22;16676;51.202;6.774;2022-09-09T09:15:20;23.30;55.30
29775;DHT22;16676;51.202;6.774;2022-09-09T09:19:24;23.30;55.40
29775;DHT22;16676;51.202;6.774;2022-09-09T09:23:33;23.30;55.30
29775;DHT22;16676;51.202;6.774;2022-09-09T09:27:42;23.20;53.40
29775;DHT22;16676;51.202;6.774;2022-09-09T09:31:48;23.10;54.00
29775;DHT22;16676;51.202;6.774;2022-09-09T09:35:52;23.00;54.20
29775;DHT22;16676;51.202;6.774;2022-09-09T09:40:08;23.00;53.20
29775;DHT22;16676;51.202;6.774;2022-09-09T09:44:23;23.00;52.90
29775;DHT22;16676;51.202;6.774;2022-09-09T09:48:26;23.10;51.90
29775;DHT22;16676;51.202;6.774;2022-09-09T09:52:30;23.20;51.80
29775;DHT22;16676;51.202;6.774;2022-09-09T09:56:33;23.20;51.80
29775;DHT22;16676;51.202;6.774;2022-09-09T10:00:35;23.20;52.80
29775;DHT22;16676;51.202;6.774;2022-09-09T10:04:37;23.30;51.80
29775;DHT22;16676;51.202;6.774;2022-09-09T10:08:45;23.20;51.70
29775;DHT22;16676;51.202;6.774;2022-09-09T10:12:57;23.10;51.30
29775;DHT22;16676;51.202;6.774;2022-09-09T10:17:13;23.20;51.70
29775;DHT22;16676;51.202;6.774;2022-09-09T10:21:26;23.10;51.50
29775;DHT22;16676;51.202;6.774;2022-09-09T10:25:43;23.20;52.30
29775;DHT22;16676;51.202;6.774;2022-09-09T10:30:03;23.20;51.80
29775;DHT22;16676;51.202;6.774;2022-09-09T10:34:19;23.00;51.30
29775;DHT22;16676;51.202;6.774;2022-09-09T10:38:30;23.00;53.80
29775;DHT22;16676;51.202;6.774;2022-09-09T10:42:35;23.20;52.00
29775;DHT22;16676;51.202;6.774;2022-09-09T10:46:46;23.30;52.00
29775;DHT22;16676;51.202;6.774;2022-09-09T10:50:56;23.40;52.10
29775;DHT22;16676;51.202;6.774;2022-09-09T10:55:09;23.50;52.10
29775;DHT22;16676;51.202;6.774;2022-09-09T10:59:16;23.60;51.80
29775;DHT22;16676;51.202;6.774;2022-09-09T11:03:22;23.60;51.90
29775;DHT22;16676;51.202;6.774;2022-09-09T11:07:29;23.60;52.30
29775;DHT22;16676;51.202;6.774;2022-09-09T11:11:39;23.60;51.60
29775;DHT22;16676;51.202;6.774;2022-09-09T11:15:46;23.70;51.50
29775;DHT22;16676;51.202;6.774;2022-09-09T11:19:53;23.70;51.60
29775;DHT22;16676;51.202;6.774;2022-09-09T11:23:57;23.70;52.20
29775;DHT22;16676;51.202;6.774;2022-09-09T11:28:19;23.70;52.00
29775;DHT22;16676;51.202;6.774;2022-09-09T11:41:43;23.80;52.10
29775;DHT22;16676;51.202;6.774;2022-09-09T11:45:51;23.90;52.30
29775;DHT22;16676;51.202;6.774;2022-09-09T11:50:08;23.90;53.50
29775;DHT22;16676;51.202;6.774;2022-09-09T11:54:28;23.90;52.40
29775;DHT22;16676;51.202;6.774;2022-09-09T11:58:39;23.90;54.00
29775;DHT22;16676;51.202;6.774;2022-09-09T12:02:48;23.90;53.70
29775;DHT22;16676;51.202;6.774;2022-09-09T12:06:53;23.90;52.10
29775;DHT22;16676;51.202;6.774;2022-09-09T12:10:58;24.00;52.90
29775;DHT22;16676;51.202;6.774;2022-09-09T12:15:18;24.00;52.10
29775;DHT22;16676;51.202;6.774;2022-09-09T12:19:22;24.10;53.70
29775;DHT22;16676;51.202;6.774;2022-09-09T12:23:33;24.10;51.60
29775;DHT22;16676;51.202;6.774;2022-09-09T12:27:46;24.10;52.30
29775;DHT22;16676;51.202;6.774;2022-09-09T12:31:58;24.20;52.20
29775;DHT22;16676;51.202;6.774;2022-09-09T12:36:04;24.20;51.90
29775;DHT22;16676;51.202;6.774;2022-09-09T12:40:19;24.10;51.80
29775;DHT22;16676;51.202;6.774;2022-09-09T12:44:22;24.20;51.80
29775;DHT22;16676;51.202;6.774;2022-09-09T12:48:29;24.20;51.80
29775;DHT22;16676;51.202;6.774;2022-09-09T12:52:35;24.30;52.10
29775;DHT22;16676;51.202;6.774;2022-09-09T12:56:38;24.30;52.00
29775;DHT22;16676;51.202;6.774;2022-09-09T13:00:48;24.30;52.90
29775;DHT22;16676;51.202;6.774;2022-09-09T13:04:54;24.30;53.40
29775;DHT22;16676;51.202;6.774;2022-09-09T13:08:58;24.30;51.90
29775;DHT22;16676;51.202;6.774;2022-09-09T13:13:00;24.30;52.40
29775;DHT22;16676;51.202;6.774;2022-09-09T13:17:05;24.40;53.00
29775;DHT22;16676;51.202;6.774;2022-09-09T13:21:09;24.40;53.10
29775;DHT22;16676;51.202;6.774;2022-09-09T13:25:20;24.40;52.80
29775;DHT22;16676;51.202;6.774;2022-09-09T13:29:22;24.50;53.30
29775;DHT22;16676;51.202;6.774;2022-09-09T13:33:30;24.50;52.50
29775;DHT22;16676;51.202;6.774;2022-09-09T13:37:36;24.50;52.50
29775;DHT22;16676;51.202;6.774;2022-09-09T13:41:43;24.50;53.00
29775;DHT22;16676;51.202;6.774;2022-09-09T13:45:53;24.50;53.70
29775;DHT22;16676;51.202;6.774;2022-09-09T13:49:56;24.50;52.90
29775;DHT22;16676;51.202;6.774;2022-09-09T13:54:01;24.60;52.90
29775;DHT22;16676;51.202;6.774;2022-09-09T13:58:04;24.60;52.60
29775;DHT22;16676;51.202;6.774;2022-09-09T14:02:07;24.60;53.30
29775;DHT22;16676;51.202;6.774;2022-09-09T14:06:09;24.70;52.80
29775;DHT22;16676;51.202;6.774;2022-09-09T14:10:13;24.70;53.60
29775;DHT22;16676;51.202;6.774;2022-09-09T14:14:15;24.70;53.40
29775;DHT22;16676;51.202;6.774;2022-09-09T14:18:17;24.70;53.40
29775;DHT22;16676;51.202;6.774;2022-09-09T14:22:19;24.80;52.70
29775;DHT22;16676;51.202;6.774;2022-09-09T14:26:22;24.80;52.50
29775;DHT22;16676;51.202;6.774;2022-09-09T14:30:24;24.80;53.20
29775;DHT22;16676;51.202;6.774;2022-09-09T14:34:26;24.70;53.40
29775;DHT22;16676;51.202;6.774;2022-09-09T14:38:29;24.70;53.90
29775;DHT22;16676;51.202;6.774;2022-09-09T14:42:33;24.80;53.50
29775;DHT22;16676;51.202;6.774;2022-09-09T14:46:35;24.80;52.30
29775;DHT22;16676;51.202;6.774;2022-09-09T14:50:37;24.80;52.10
29775;DHT22;16676;51.202;6.774;2022-09-09T14:54:40;24.80;53.00
29775;DHT22;16676;51.202;6.774;2022-09-09T14:58:44;24.80;52.20
29775;DHT22;16676;51.202;6.774;2022-09-09T15:02:46;24.90;53.80
29775;DHT22;16676;51.202;6.774;2022-09-09T15:06:49;24.90;52.50
29775;DHT22;16676;51.202;6.774;2022-09-09T15:10:59;24.90;52.60
29775;DHT22;16676;51.202;6.774;2022-09-09T15:15:04;24.90;52.10
29775;DHT22;16676;51.202;6.774;2022-09-09T15:19:06;24.90;52.90
29775;DHT22;16676;51.202;6.774;2022-09-09T15:23:09;24.90;53.60
29775;DHT22;16676;51.202;6.774;2022-09-09T15:27:11;24.90;52.90
29775;DHT22;16676;51.202;6.774;2022-09-09T15:31:17;24.90;52.80
29775;DHT22;16676;51.202;6.774;2022-09-09T15:35:19;25.00;52.90
29775;DHT22;16676;51.202;6.774;2022-09-09T15:39:21;25.00;53.50
29775;DHT22;16676;51.202;6.774;2022-09-09T15:43:23;25.00;54.00
29775;DHT22;16676;51.202;6.774;2022-09-09T15:47:27;25.00;54.30
29775;DHT22;16676;51.202;6.774;2022-09-09T15:51:29;25.00;53.10
29775;DHT22;16676;51.202;6.774;2022-09-09T15:55:31;25.00;53.70
29775;DHT22;16676;51.202;6.774;2022-09-09T15:59:33;25.00;54.30
29775;DHT22;16676;51.202;6.774;2022-09-09T16:03:38;24.90;54.20
29775;DHT22;16676;51.202;6.774;2022-09-09T16:07:40;24.90;54.60
29775;DHT22;16676;51.202;6.774;2022-09-09T16:11:43;24.90;55.00
29775;DHT22;16676;51.202;6.774;2022-09-09T16:15:45;24.90;54.20
29775;DHT22;16676;51.202;6.774;2022-09-09T16:19:48;24.90;53.90
29775;DHT22;16676;51.202;6.774;2022-09-09T16:23:50;24.90;54.20
29775;DHT22;16676;51.202;6.774;2022-09-09T16:27:53;24.90;55.30
29775;DHT22;16676;51.202;6.774;2022-09-09T16:31:55;24.70;56.80
29775;DHT22;16676;51.202;6.774;2022-09-09T16:36:05;24.60;56.70
29775;DHT22;16676;51.202;6.774;2022-09-09T16:40:07;24.50;57.90
29775;DHT22;16676;51.202;6.774;2022-09-09T16:44:11;24.40;57.60
29775;DHT22;16676;51.202;6.774;2022-09-09T16:48:13;24.40;58.50
29775;DHT22;16676;51.202;6.774;2022-09-09T16:52:17;24.30;58.10
29775;DHT22;16676;51.202;6.774;2022-09-09T16:56:21;24.20;58.00
29775;DHT22;16676;51.202;6.774;2022-09-09T17:00:23;24.10;59.10
29775;DHT22;16676;51.202;6.774;2022-09-09T17:04:27;24.00;59.10
29775;DHT22;16676;51.202;6.774;2022-09-09T17:08:33;24.00;60.10
29775;DHT22;16676;51.202;6.774;2022-09-09T17:12:35;24.00;59.90
29775;DHT22;16676;51.202;6.774;2022-09-09T17:16:37;24.00;60.30
29775;DHT22;16676;51.202;6.774;2022-09-09T17:20:40;23.90;60.40
29775;DHT22;16676;51.202;6.774;2022-09-09T17:24:45;23.90;60.30
29775;DHT22;16676;51.202;6.774;2022-09-09T17:28:47;23.80;61.50
29775;DHT22;16676;51.202;6.774;2022-09-09T17:32:50;23.80;61.40
29775;DHT22;16676;51.202;6.774;2022-09-09T17:36:52;23.80;60.80
29775;DHT22;16676;51.202;6.774;2022-09-09T17:41:03;23.80;62.30
29775;DHT22;16676;51.202;6.774;2022-09-09T17:45:06;23.80;61.90
29775;DHT22;16676;51.202;6.774;2022-09-09T17:49:09;23.60;61.80
29775;DHT22;16676;51.202;6.774;2022-09-09T17:53:12;23.60;61.80
29775;DHT22;16676;51.202;6.774;2022-09-09T17:57:16;23.60;61.80
29775;DHT22;16676;51.202;6.774;2022-09-09T18:01:22;23.60;62.20
29775;DHT22;16676;51.202;6.774;2022-09-09T18:05:25;23.50;61.70
29775;DHT22;16676;51.202;6.774;2022-09-09T18:09:27;23.50;61.90
29775;DHT22;16676;51.202;6.774;2022-09-09T18:13:30;23.50;62.10
29775;DHT22;16676;51.202;6.774;2022-09-09T18:17:32;23.50;62.90
29775;DHT22;16676;51.202;6.774;2022-09-09T18:21:34;23.50;62.20
29775;DHT22;16676;51.202;6.774;2022-09-09T18:25:37;23.40;62.50
29775;DHT22;16676;51.202;6.774;2022-09-09T18:29:41;23.40;62.60
29775;DHT22;16676;51.202;6.774;2022-09-09T18:33:45;23.30;62.50
29775;DHT22;16676;51.202;6.774;2022-09-09T18:37:47;23.30;62.80
29775;DHT22;16676;51.202;6.774;2022-09-09T18:41:50;23.30;63.10
29775;DHT22;16676;51.202;6.774;2022-09-09T18:45:54;23.30;63.10
29775;DHT22;16676;51.202;6.774;2022-09-09T18:49:57;23.20;62.00
29775;DHT22;16676;51.202;6.774;2022-09-09T18:54:00;23.20;62.70
29775;DHT22;16676;51.202;6.774;2022-09-09T18:58:03;23.20;62.30
29775;DHT22;16676;51.202;6.774;2022-09-09T19:02:06;23.20;62.60
29775;DHT22;16676;51.202;6.774;2022-09-09T19:06:10;23.10;62.20
29775;DHT22;16676;51.202;6.774;2022-09-09T19:10:12;23.00;62.50
29775;DHT22;16676;51.202;6.774;2022-09-09T19:14:16;23.00;61.90
29775;DHT22;16676;51.202;6.774;2022-09-09T19:18:20;23.00;61.60
29775;DHT22;16676;51.202;6.774;2022-09-09T19:22:23;23.00;62.10
29775;DHT22;16676;51.202;6.774;2022-09-09T19:26:26;23.00;61.90
29775;DHT22;16676;51.202;6.774;2022-09-09T19:30:29;23.00;61.90
29775;DHT22;16676;51.202;6.774;2022-09-09T19:34:32;23.00;62.00
29775;DHT22;16676;51.202;6.774;2022-09-09T19:38:36;22.90;61.70
29775;DHT22;16676;51.202;6.774;2022-09-09T19:42:38;22.90;62.30
29775;DHT22;16676;51.202;6.774;2022-09-09T19:46:41;22.80;62.50
29775;DHT22;16676;51.202;6.774;2022-09-09T19:50:45;22.80;62.40
29775;DHT22;16676;51.202;6.774;2022-09-09T19:54:47;22.80;62.70
29775;DHT22;16676;51.202;6.774;2022-09-09T19:58:50;22.80;62.10
29775;DHT22;16676;51.202;6.774;2022-09-09T20:02:53;22.80;62.90
29775;DHT22;16676;51.202;6.774;2022-09-09T20:06:56;22.80;62.70
29775;DHT22;16676;51.202;6.774;2022-09-09T20:10:58;22.80;62.80
29775;DHT22;16676;51.202;6.774;2022-09-09T20:15:00;22.80;62.80
29775;DHT22;16676;51.202;6.774;2022-09-09T20:19:04;22.70;63.20
29775;DHT22;16676;51.202;6.774;2022-09-09T20:23:08;22.70;62.60
29775;DHT22;16676;51.202;6.774;2022-09-09T20:27:09;22.80;63.30
29775;DHT22;16676;51.202;6.774;2022-09-09T20:31:14;22.80;63.20
29775;DHT22;16676;51.202;6.774;2022-09-09T20:35:16;22.80;62.40
29775;DHT22;16676;51.202;6.774;2022-09-09T20:39:19;22.80;62.80
29775;DHT22;16676;51.202;6.774;2022-09-09T20:43:21;22.80;62.20
29775;DHT22;16676;51.202;6.774;2022-09-09T20:47:23;22.80;62.50
29775;DHT22;16676;51.202;6.774;2022-09-09T20:51:27;22.80;63.10
29775;DHT22;16676;51.202;6.774;2022-09-09T20:55:32;22.80;62.40
29775;DHT22;16676;51.202;6.774;2022-09-09T20:59:35;22.80;63.10
29775;DHT22;16676;51.202;6.774;2022-09-09T21:03:36;22.70;62.70
29775;DHT22;16676;51.202;6.774;2022-09-09T21:07:38;22.70;63.10
29775;DHT22;16676;51.202;6.774;2022-09-09T21:11:42;22.70;62.90
29775;DHT22;16676;51.202;6.774;2022-09-09T21:15:44;22.70;62.60
29775;DHT22;16676;51.202;6.774;2022-09-09T21:19:46;22.70;63.10
29775;DHT22;16676;51.202;6.774;2022-09-09T21:23:49;22.60;62.80
29775;DHT22;16676;51.202;6.774;2022-09-09T21:27:52;22.60;62.90
29775;DHT22;16676;51.202;6.774;2022-09-09T21:31:54;22.60;63.20
29775;DHT22;16676;51.202;6.774;2022-09-09T21:36:02;22.60;62.90
29775;DHT22;16676;51.202;6.774;2022-09-09T21:40:04;22.60;63.50
29775;DHT22;16676;51.202;6.774;2022-09-09T21:44:08;22.50;63.10
29775;DHT22;16676;51.202;6.774;2022-09-09T21:48:15;22.50;63.30
29775;DHT22;16676;51.202;6.774;2022-09-09T21:52:18;22.40;63.10
29775;DHT22;16676;51.202;6.774;2022-09-09T21:56:20;22.40;62.60
29775;DHT22;16676;51.202;6.774;2022-09-09T22:00:24;22.40;63.10
29775;DHT22;16676;51.202;6.774;2022-09-09T22:04:26;22.40;63.20
29775;DHT22;16676;51.202;6.774;2022-09-09T22:08:28;22.40;62.60
29775;DHT22;16676;51.202;6.774;2022-09-09T22:12:30;22.40;62.80
29775;DHT22;16676;51.202;6.774;2022-09-09T22:16:33;22.40;63.40
29775;DHT22;16676;51.202;6.774;2022-09-09T22:20:39;22.40;62.80
29775;DHT22;16676;51.202;6.774;2022-09-09T22:24:42;22.40;62.90
29775;DHT22;16676;51.202;6.774;2022-09-09T22:28:44;22.30;63.40
29775;DHT22;16676;51.202;6.774;2022-09-09T22:32:48;22.40;63.20
29775;DHT22;16676;51.202;6.774;2022-09-09T22:36:50;22.30;63.50
29775;DHT22;16676;51.202;6.774;2022-09-09T22:40:52;22.30;63.00
29775;DHT22;16676;51.202;6.774;2022-09-09T22:44:54;22.30;62.50
29775;DHT22;16676;51.202;6.774;2022-09-09T22:48:57;22.30;62.50
29775;DHT22;16676;51.202;6.774;2022-09-09T22:53:02;22.30;62.80
29775;DHT22;16676;51.202;6.774;2022-09-09T22:57:04;22.30;62.90
29775;DHT22;16676;51.202;6.774;2022-09-09T23:01:11;22.20;63.10
29775;DHT22;16676;51.202;6.774;2022-09-09T23:05:16;22.30;62.90
29775;DHT22;16676;51.202;6.774;2022-09-09T23:09:19;22.20;62.60
29775;DHT22;16676;51.202;6.774;2022-09-09T23:13:22;22.20;62.50
29775;DHT22;16676;51.202;6.774;2022-09-09T23:17:25;22.10;62.40
29775;DHT22;16676;51.202;6.774;2022-09-09T23:21:29;22.10;62.50
29775;DHT22;16676;51.202;6.774;2022-09-09T23:25:34;22.10;61.80
29775;DHT22;16676;51.202;6.774;2022-09-09T23:29:36;22.10;62.30
29775;DHT22;16676;51.202;6.774;2022-09-09T23:33:39;22.10;61.50
29775;DHT22;16676;51.202;6.774;2022-09-09T23:37:42;22.10;61.70
29775;DHT22;16676;51.202;6.774;2022-09-09T23:41:44;22.10;61.50
29775;DHT22;16676;51.202;6.774;2022-09-09T23:45:47;22.00;62.10
29775;DHT22;16676;51.202;6.774;2022-09-09T23:49:49;22.10;61.80
29775;DHT22;16676;51.202;6.774;2022-09-09T23:53:54;22.00;62.30
29775;DHT22;16676;51.202;6.774;2022-09-09T23:57:57;22.00;62.10
